sensor_id;sensor_type;location;lat;lon;timestamp;temperature;humidity
60234;DHT22;49514;43.538;-5.708;2023-12-20T00:01:36;13.40;99.90
60234;DHT22;49514;43.538;-5.708;2023-12-20T00:04:03;13.40;99.90
60234;DHT22;49514;43.538;-5.708;2023-12-20T00:06:30;13.30;99.90
60234;DHT22;49514;43.538;-5.708;2023-12-20T00:08:57;13.40;99.90
60234;DHT22;49514;43.538;-5.708;2023-12-20T00:11:26;13.40;99.90
60234;DHT22;49514;43.538;-5.708;2023-12-20T00:13:53;13.40;99.90
60234;DHT22;49514;43.538;-5.708;2023-12-20T00:16:19;13.40;99.90
60234;DHT22;49514;43.538;-5.708;2023-12-20T00:18:46;13.40;99.90
60234;DHT22;49514;43.538;-5.708;2023-12-20T00:21:13;13.30;99.90
60234;DHT22;49514;43.538;-5.708;2023-12-20T00:23:39;13.30;99.90
60234;DHT22;49514;43.538;-5.708;2023-12-20T00:26:06;13.30;99.90
60234;DHT22;49514;43.538;-5.708;2023-12-20T00:28:32;13.30;99.90
60234;DHT22;49514;43.538;-5.708;2023-12-20T00:30:59;13.30;99.90
60234;DHT22;49514;43.538;-5.708;2023-12-20T00:33:26;13.30;99.90
60234;DHT22;49514;43.538;-5.708;2023-12-20T00:35:52;13.30;99.90
60234;DHT22;49514;43.538;-5.708;2023-12-20T00:38:18;13.30;99.90
60234;DHT22;49514;43.538;-5.708;2023-12-20T00:40:45;13.30;99.90
60234;DHT22;49514;43.538;-5.708;2023-12-20T00:43:11;13.30;99.90
60234;DHT22;49514;43.538;-5.708;2023-12-20T00:45:37;13.30;99.90
60234;DHT22;49514;43.538;-5.708;2023-12-20T00:48:04;13.30;99.90
60234;DHT22;49514;43.538;-5.708;2023-12-20T00:50:31;13.20;99.90
60234;DHT22;49514;43.538;-5.708;2023-12-20T00:52:57;13.20;99.90
60234;DHT22;49514;43.538;-5.708;2023-12-20T00:55:24;13.20;99.90
60234;DHT22;49514;43.538;-5.708;2023-12-20T00:57:50;13.20;99.90
60234;DHT22;49514;43.538;-5.708;2023-12-20T01:00:16;13.30;99.90
60234;DHT22;49514;43.538;-5.708;2023-12-20T01:02:43;13.30;99.90
60234;DHT22;49514;43.538;-5.708;2023-12-20T01:05:09;13.30;99.90
60234;DHT22;49514;43.538;-5.708;2023-12-20T01:07:36;13.20;99.90
60234;DHT22;49514;43.538;-5.708;2023-12-20T01:10:02;13.20;99.90
60234;DHT22;49514;43.538;-5.708;2023-12-20T01:12:29;13.30;99.90
60234;DHT22;49514;43.538;-5.708;2023-12-20T01:14:55;13.20;99.90
60234;DHT22;49514;43.538;-5.708;2023-12-20T01:17:22;13.20;99.90
60234;DHT22;49514;43.538;-5.708;2023-12-20T01:19:48;13.10;99.90
60234;DHT22;49514;43.538;-5.708;2023-12-20T01:22:14;13.10;99.90
60234;DHT22;49514;43.538;-5.708;2023-12-20T01:24:41;13.00;99.90
60234;DHT22;49514;43.538;-5.708;2023-12-20T01:27:07;13.00;99.90
60234;DHT22;49514;43.538;-5.708;2023-12-20T01:29:33;13.00;99.90
60234;DHT22;49514;43.538;-5.708;2023-12-20T01:32:00;13.00;99.90
60234;DHT22;49514;43.538;-5.708;2023-12-20T01:34:26;13.00;99.90
60234;DHT22;49514;43.538;-5.708;2023-12-20T01:36:52;13.10;99.90
60234;DHT22;49514;43.538;-5.708;2023-12-20T01:39:19;13.00;99.90
60234;DHT22;49514;43.538;-5.708;2023-12-20T01:41:45;13.00;99.90
60234;DHT22;49514;43.538;-5.708;2023-12-20T01:44:11;13.00;99.90
60234;DHT22;49514;43.538;-5.708;2023-12-20T01:46:38;13.00;99.90
60234;DHT22;49514;43.538;-5.708;2023-12-20T01:49:04;13.00;99.90
60234;DHT22;49514;43.538;-5.708;2023-12-20T01:51:31;12.90;99.90
60234;DHT22;49514;43.538;-5.708;2023-12-20T01:53:58;12.90;99.90
60234;DHT22;49514;43.538;-5.708;2023-12-20T01:56:28;12.90;99.90
60234;DHT22;49514;43.538;-5.708;2023-12-20T01:58:55;12.90;99.90
60234;DHT22;49514;43.538;-5.708;2023-12-20T02:01:22;12.90;99.90
60234;DHT22;49514;43.538;-5.708;2023-12-20T02:03:48;12.90;99.90
60234;DHT22;49514;43.538;-5.708;2023-12-20T02:06:15;12.90;99.90
60234;DHT22;49514;43.538;-5.708;2023-12-20T02:08:42;12.90;99.90
60234;DHT22;49514;43.538;-5.708;2023-12-20T02:11:08;12.90;99.90
60234;DHT22;49514;43.538;-5.708;2023-12-20T02:13:35;12.90;99.90
60234;DHT22;49514;43.538;-5.708;2023-12-20T02:16:02;12.90;99.90
60234;DHT22;49514;43.538;-5.708;2023-12-20T02:18:28;13.00;99.90
60234;DHT22;49514;43.538;-5.708;2023-12-20T02:20:54;13.00;99.90
60234;DHT22;49514;43.538;-5.708;2023-12-20T02:23:22;13.00;99.90
60234;DHT22;49514;43.538;-5.708;2023-12-20T02:25:49;13.00;99.90
60234;DHT22;49514;43.538;-5.708;2023-12-20T02:28:16;13.00;99.90
60234;DHT22;49514;43.538;-5.708;2023-12-20T02:30:43;13.00;99.90
60234;DHT22;49514;43.538;-5.708;2023-12-20T02:33:12;12.90;99.90
60234;DHT22;49514;43.538;-5.708;2023-12-20T02:35:39;12.90;99.90
60234;DHT22;49514;43.538;-5.708;2023-12-20T02:38:06;12.90;99.90
60234;DHT22;49514;43.538;-5.708;2023-12-20T02:40:32;12.90;99.90
60234;DHT22;49514;43.538;-5.708;2023-12-20T02:42:59;12.80;99.90
60234;DHT22;49514;43.538;-5.708;2023-12-20T02:45:26;12.90;99.90
60234;DHT22;49514;43.538;-5.708;2023-12-20T02:47:53;12.80;99.90
60234;DHT22;49514;43.538;-5.708;2023-12-20T02:50:20;12.80;99.90
60234;DHT22;49514;43.538;-5.708;2023-12-20T02:52:46;12.80;99.90
60234;DHT22;49514;43.538;-5.708;2023-12-20T02:55:13;12.80;99.90
60234;DHT22;49514;43.538;-5.708;2023-12-20T02:57:40;12.80;99.90
60234;DHT22;49514;43.538;-5.708;2023-12-20T03:00:10;12.80;99.90
60234;DHT22;49514;43.538;-5.708;2023-12-20T03:02:40;12.90;99.90
60234;DHT22;49514;43.538;-5.708;2023-12-20T03:05:06;12.80;99.90
60234;DHT22;49514;43.538;-5.708;2023-12-20T03:07:33;12.80;99.90
60234;DHT22;49514;43.538;-5.708;2023-12-20T03:10:00;12.90;99.90
60234;DHT22;49514;43.538;-5.708;2023-12-20T03:12:26;12.80;99.90
60234;DHT22;49514;43.538;-5.708;2023-12-20T03:14:53;12.70;99.90
60234;DHT22;49514;43.538;-5.708;2023-12-20T03:17:19;12.70;99.90
60234;DHT22;49514;43.538;-5.708;2023-12-20T03:19:47;12.70;99.90
60234;DHT22;49514;43.538;-5.708;2023-12-20T03:22:13;12.60;99.90
60234;DHT22;49514;43.538;-5.708;2023-12-20T03:24:40;12.60;99.90
60234;DHT22;49514;43.538;-5.708;2023-12-20T03:27:06;12.50;99.90
60234;DHT22;49514;43.538;-5.708;2023-12-20T03:29:33;12.50;99.90
60234;DHT22;49514;43.538;-5.708;2023-12-20T03:31:59;12.50;99.90
60234;DHT22;49514;43.538;-5.708;2023-12-20T03:34:26;12.40;99.90
60234;DHT22;49514;43.538;-5.708;2023-12-20T03:36:53;12.40;99.90
60234;DHT22;49514;43.538;-5.708;2023-12-20T03:39:20;12.40;99.90
60234;DHT22;49514;43.538;-5.708;2023-12-20T03:41:46;12.40;99.90
60234;DHT22;49514;43.538;-5.708;2023-12-20T03:44:13;12.50;99.90
60234;DHT22;49514;43.538;-5.708;2023-12-20T03:46:39;12.40;99.90
60234;DHT22;49514;43.538;-5.708;2023-12-20T03:49:06;12.40;99.90
60234;DHT22;49514;43.538;-5.708;2023-12-20T03:51:33;12.50;99.90
60234;DHT22;49514;43.538;-5.708;2023-12-20T03:53:59;12.50;99.90
60234;DHT22;49514;43.538;-5.708;2023-12-20T03:56:26;12.50;99.90
60234;DHT22;49514;43.538;-5.708;2023-12-20T03:58:53;12.50;99.90
60234;DHT22;49514;43.538;-5.708;2023-12-20T04:01:19;12.50;99.90
60234;DHT22;49514;43.538;-5.708;2023-12-20T04:03:46;12.60;99.90
60234;DHT22;49514;43.538;-5.708;2023-12-20T04:06:17;12.60;99.90
60234;DHT22;49514;43.538;-5.708;2023-12-20T04:08:44;12.50;99.90
60234;DHT22;49514;43.538;-5.708;2023-12-20T04:11:11;12.50;99.90
60234;DHT22;49514;43.538;-5.708;2023-12-20T04:13:37;12.50;99.90
60234;DHT22;49514;43.538;-5.708;2023-12-20T04:16:04;12.40;99.90
60234;DHT22;49514;43.538;-5.708;2023-12-20T04:18:30;12.50;99.90
60234;DHT22;49514;43.538;-5.708;2023-12-20T04:20:58;12.40;99.90
60234;DHT22;49514;43.538;-5.708;2023-12-20T04:23:24;12.40;99.90
60234;DHT22;49514;43.538;-5.708;2023-12-20T04:25:51;12.40;99.90
60234;DHT22;49514;43.538;-5.708;2023-12-20T04:28:17;12.40;99.90
60234;DHT22;49514;43.538;-5.708;2023-12-20T04:30:44;12.30;99.90
60234;DHT22;49514;43.538;-5.708;2023-12-20T04:33:11;12.30;99.90
60234;DHT22;49514;43.538;-5.708;2023-12-20T04:35:37;12.30;99.90
60234;DHT22;49514;43.538;-5.708;2023-12-20T04:38:04;12.30;99.90
60234;DHT22;49514;43.538;-5.708;2023-12-20T04:40:30;12.30;99.90
60234;DHT22;49514;43.538;-5.708;2023-12-20T04:42:57;12.30;99.90
60234;DHT22;49514;43.538;-5.708;2023-12-20T04:45:23;12.20;99.90
60234;DHT22;49514;43.538;-5.708;2023-12-20T04:47:51;12.20;99.90
60234;DHT22;49514;43.538;-5.708;2023-12-20T04:50:18;12.20;99.90
60234;DHT22;49514;43.538;-5.708;2023-12-20T04:52:46;12.20;99.90
60234;DHT22;49514;43.538;-5.708;2023-12-20T04:55:12;12.20;99.90
60234;DHT22;49514;43.538;-5.708;2023-12-20T04:57:40;12.20;99.90
60234;DHT22;49514;43.538;-5.708;2023-12-20T05:00:06;12.20;99.90
60234;DHT22;49514;43.538;-5.708;2023-12-20T05:02:36;12.20;99.90
60234;DHT22;49514;43.538;-5.708;2023-12-20T05:05:02;12.20;99.90
60234;DHT22;49514;43.538;-5.708;2023-12-20T05:07:29;12.10;99.90
60234;DHT22;49514;43.538;-5.708;2023-12-20T05:09:56;12.10;99.90
60234;DHT22;49514;43.538;-5.708;2023-12-20T05:12:22;12.10;99.90
60234;DHT22;49514;43.538;-5.708;2023-12-20T05:14:49;12.20;99.90
60234;DHT22;49514;43.538;-5.708;2023-12-20T05:17:15;12.10;99.90
60234;DHT22;49514;43.538;-5.708;2023-12-20T05:19:42;12.10;99.90
60234;DHT22;49514;43.538;-5.708;2023-12-20T05:22:09;12.10;99.90
60234;DHT22;49514;43.538;-5.708;2023-12-20T05:24:35;12.10;99.90
60234;DHT22;49514;43.538;-5.708;2023-12-20T05:27:02;12.10;99.90
60234;DHT22;49514;43.538;-5.708;2023-12-20T05:29:29;12.10;99.90
60234;DHT22;49514;43.538;-5.708;2023-12-20T05:31:55;12.20;99.90
60234;DHT22;49514;43.538;-5.708;2023-12-20T05:34:22;12.20;99.90
60234;DHT22;49514;43.538;-5.708;2023-12-20T05:36:48;12.20;99.90
60234;DHT22;49514;43.538;-5.708;2023-12-20T05:39:15;12.20;99.90
60234;DHT22;49514;43.538;-5.708;2023-12-20T05:41:41;12.20;99.90
60234;DHT22;49514;43.538;-5.708;2023-12-20T05:44:08;12.10;99.90
60234;DHT22;49514;43.538;-5.708;2023-12-20T05:46:36;12.20;99.90
60234;DHT22;49514;43.538;-5.708;2023-12-20T05:49:03;12.20;99.90
60234;DHT22;49514;43.538;-5.708;2023-12-20T05:51:29;12.10;99.90
60234;DHT22;49514;43.538;-5.708;2023-12-20T05:53:56;12.10;99.90
60234;DHT22;49514;43.538;-5.708;2023-12-20T05:56:22;12.10;99.90
60234;DHT22;49514;43.538;-5.708;2023-12-20T05:58:48;12.10;99.90
60234;DHT22;49514;43.538;-5.708;2023-12-20T06:01:15;12.10;99.90
60234;DHT22;49514;43.538;-5.708;2023-12-20T06:03:43;12.10;99.90
60234;DHT22;49514;43.538;-5.708;2023-12-20T06:06:09;12.10;99.90
60234;DHT22;49514;43.538;-5.708;2023-12-20T06:08:36;12.10;99.90
60234;DHT22;49514;43.538;-5.708;2023-12-20T06:11:02;12.00;99.90
60234;DHT22;49514;43.538;-5.708;2023-12-20T06:13:28;12.10;99.90
60234;DHT22;49514;43.538;-5.708;2023-12-20T06:15:55;12.10;99.90
60234;DHT22;49514;43.538;-5.708;2023-12-20T06:18:22;12.00;99.90
60234;DHT22;49514;43.538;-5.708;2023-12-20T06:20:48;12.10;99.90
60234;DHT22;49514;43.538;-5.708;2023-12-20T06:23:14;12.00;99.90
60234;DHT22;49514;43.538;-5.708;2023-12-20T06:25:41;12.00;99.90
60234;DHT22;49514;43.538;-5.708;2023-12-20T06:28:07;12.00;99.90
60234;DHT22;49514;43.538;-5.708;2023-12-20T06:30:36;12.00;99.90
60234;DHT22;49514;43.538;-5.708;2023-12-20T06:33:02;12.00;99.90
60234;DHT22;49514;43.538;-5.708;2023-12-20T06:35:29;12.00;99.90
60234;DHT22;49514;43.538;-5.708;2023-12-20T06:37:55;12.00;99.90
60234;DHT22;49514;43.538;-5.708;2023-12-20T06:40:23;12.00;99.90
60234;DHT22;49514;43.538;-5.708;2023-12-20T06:42:49;12.00;99.90
60234;DHT22;49514;43.538;-5.708;2023-12-20T06:45:16;12.00;99.90
60234;DHT22;49514;43.538;-5.708;2023-12-20T06:47:42;12.00;99.90
60234;DHT22;49514;43.538;-5.708;2023-12-20T06:50:09;12.00;99.90
60234;DHT22;49514;43.538;-5.708;2023-12-20T06:52:38;12.00;99.90
60234;DHT22;49514;43.538;-5.708;2023-12-20T06:55:04;12.00;99.90
60234;DHT22;49514;43.538;-5.708;2023-12-20T06:57:31;12.00;99.90
60234;DHT22;49514;43.538;-5.708;2023-12-20T06:59:57;12.00;99.90
60234;DHT22;49514;43.538;-5.708;2023-12-20T07:02:24;12.00;99.90
60234;DHT22;49514;43.538;-5.708;2023-12-20T07:04:50;12.10;99.90
60234;DHT22;49514;43.538;-5.708;2023-12-20T07:07:17;12.10;99.90
60234;DHT22;49514;43.538;-5.708;2023-12-20T07:09:43;12.10;99.90
60234;DHT22;49514;43.538;-5.708;2023-12-20T07:12:10;12.10;99.90
60234;DHT22;49514;43.538;-5.708;2023-12-20T07:14:36;12.10;99.90
60234;DHT22;49514;43.538;-5.708;2023-12-20T07:17:02;12.10;99.90
60234;DHT22;49514;43.538;-5.708;2023-12-20T07:19:37;12.10;99.90
60234;DHT22;49514;43.538;-5.708;2023-12-20T07:22:05;12.00;99.90
60234;DHT22;49514;43.538;-5.708;2023-12-20T07:24:32;12.00;99.90
60234;DHT22;49514;43.538;-5.708;2023-12-20T07:27:01;12.00;99.90
60234;DHT22;49514;43.538;-5.708;2023-12-20T07:29:28;12.00;99.90
60234;DHT22;49514;43.538;-5.708;2023-12-20T07:31:54;12.00;99.90
60234;DHT22;49514;43.538;-5.708;2023-12-20T07:34:22;12.00;99.90
60234;DHT22;49514;43.538;-5.708;2023-12-20T07:36:48;12.00;99.90
60234;DHT22;49514;43.538;-5.708;2023-12-20T07:39:15;12.00;99.90
60234;DHT22;49514;43.538;-5.708;2023-12-20T07:41:41;12.00;99.90
60234;DHT22;49514;43.538;-5.708;2023-12-20T07:44:07;12.00;99.90
60234;DHT22;49514;43.538;-5.708;2023-12-20T07:46:34;12.00;99.90
60234;DHT22;49514;43.538;-5.708;2023-12-20T07:49:00;11.90;99.90
60234;DHT22;49514;43.538;-5.708;2023-12-20T07:51:26;12.00;99.90
60234;DHT22;49514;43.538;-5.708;2023-12-20T07:53:53;12.00;99.90
60234;DHT22;49514;43.538;-5.708;2023-12-20T07:56:19;12.00;99.90
60234;DHT22;49514;43.538;-5.708;2023-12-20T07:58:46;12.10;99.90
60234;DHT22;49514;43.538;-5.708;2023-12-20T08:01:15;12.00;99.90
60234;DHT22;49514;43.538;-5.708;2023-12-20T08:03:41;12.00;99.90
60234;DHT22;49514;43.538;-5.708;2023-12-20T08:06:08;12.00;99.90
60234;DHT22;49514;43.538;-5.708;2023-12-20T08:08:35;11.90;99.90
60234;DHT22;49514;43.538;-5.708;2023-12-20T08:11:01;11.90;99.90
60234;DHT22;49514;43.538;-5.708;2023-12-20T08:13:28;11.90;99.90
60234;DHT22;49514;43.538;-5.708;2023-12-20T08:15:55;11.90;99.90
60234;DHT22;49514;43.538;-5.708;2023-12-20T08:18:22;11.90;99.90
60234;DHT22;49514;43.538;-5.708;2023-12-20T08:20:49;11.90;99.90
60234;DHT22;49514;43.538;-5.708;2023-12-20T08:23:15;11.90;99.90
60234;DHT22;49514;43.538;-5.708;2023-12-20T08:25:42;11.90;99.90
60234;DHT22;49514;43.538;-5.708;2023-12-20T08:28:09;11.90;99.90
60234;DHT22;49514;43.538;-5.708;2023-12-20T08:30:35;12.00;99.90
60234;DHT22;49514;43.538;-5.708;2023-12-20T08:33:02;11.90;99.90
60234;DHT22;49514;43.538;-5.708;2023-12-20T08:35:28;12.00;99.90
60234;DHT22;49514;43.538;-5.708;2023-12-20T08:37:55;12.00;99.90
60234;DHT22;49514;43.538;-5.708;2023-12-20T08:40:22;12.00;99.90
60234;DHT22;49514;43.538;-5.708;2023-12-20T08:42:49;12.00;99.90
60234;DHT22;49514;43.538;-5.708;2023-12-20T08:45:15;12.00;99.90
60234;DHT22;49514;43.538;-5.708;2023-12-20T08:47:42;12.00;99.90
60234;DHT22;49514;43.538;-5.708;2023-12-20T08:50:11;12.00;99.90
60234;DHT22;49514;43.538;-5.708;2023-12-20T08:52:37;12.00;99.90
60234;DHT22;49514;43.538;-5.708;2023-12-20T08:55:03;12.10;99.90
60234;DHT22;49514;43.538;-5.708;2023-12-20T08:57:30;12.10;99.90
60234;DHT22;49514;43.538;-5.708;2023-12-20T08:59:57;12.10;99.90
60234;DHT22;49514;43.538;-5.708;2023-12-20T09:02:24;12.20;99.90
60234;DHT22;49514;43.538;-5.708;2023-12-20T09:04:50;12.20;99.90
60234;DHT22;49514;43.538;-5.708;2023-12-20T09:07:21;12.20;99.90
60234;DHT22;49514;43.538;-5.708;2023-12-20T09:09:47;12.20;99.90
60234;DHT22;49514;43.538;-5.708;2023-12-20T09:12:14;12.20;99.90
60234;DHT22;49514;43.538;-5.708;2023-12-20T09:14:40;12.20;99.90
60234;DHT22;49514;43.538;-5.708;2023-12-20T09:17:07;12.20;99.90
60234;DHT22;49514;43.538;-5.708;2023-12-20T09:19:34;12.30;99.90
60234;DHT22;49514;43.538;-5.708;2023-12-20T09:22:01;12.30;99.90
60234;DHT22;49514;43.538;-5.708;2023-12-20T09:24:28;12.30;99.90
60234;DHT22;49514;43.538;-5.708;2023-12-20T09:26:54;12.30;99.90
60234;DHT22;49514;43.538;-5.708;2023-12-20T09:29:22;12.40;99.90
60234;DHT22;49514;43.538;-5.708;2023-12-20T09:31:49;12.40;99.90
60234;DHT22;49514;43.538;-5.708;2023-12-20T09:34:16;12.30;99.90
60234;DHT22;49514;43.538;-5.708;2023-12-20T09:36:43;12.30;99.90
60234;DHT22;49514;43.538;-5.708;2023-12-20T09:39:13;12.30;99.90
60234;DHT22;49514;43.538;-5.708;2023-12-20T09:41:42;12.30;99.90
60234;DHT22;49514;43.538;-5.708;2023-12-20T09:44:10;12.30;99.90
60234;DHT22;49514;43.538;-5.708;2023-12-20T09:46:39;12.30;99.90
60234;DHT22;49514;43.538;-5.708;2023-12-20T09:49:08;12.40;99.90
60234;DHT22;49514;43.538;-5.708;2023-12-20T09:51:35;12.40;99.90
60234;DHT22;49514;43.538;-5.708;2023-12-20T09:54:05;12.40;99.90
60234;DHT22;49514;43.538;-5.708;2023-12-20T09:56:31;12.30;99.90
60234;DHT22;49514;43.538;-5.708;2023-12-20T09:58:57;12.30;99.90
60234;DHT22;49514;43.538;-5.708;2023-12-20T10:01:25;12.30;99.90
60234;DHT22;49514;43.538;-5.708;2023-12-20T10:03:54;12.30;99.90
60234;DHT22;49514;43.538;-5.708;2023-12-20T10:06:21;12.30;99.90
60234;DHT22;49514;43.538;-5.708;2023-12-20T10:08:48;12.30;99.90
60234;DHT22;49514;43.538;-5.708;2023-12-20T10:11:14;12.40;99.90
60234;DHT22;49514;43.538;-5.708;2023-12-20T10:13:43;12.60;99.90
60234;DHT22;49514;43.538;-5.708;2023-12-20T10:16:09;12.70;99.90
60234;DHT22;49514;43.538;-5.708;2023-12-20T10:18:36;12.90;99.90
60234;DHT22;49514;43.538;-5.708;2023-12-20T10:21:02;13.10;99.90
60234;DHT22;49514;43.538;-5.708;2023-12-20T10:23:29;13.20;99.90
60234;DHT22;49514;43.538;-5.708;2023-12-20T10:25:57;13.30;99.90
60234;DHT22;49514;43.538;-5.708;2023-12-20T10:28:26;13.40;99.90
60234;DHT22;49514;43.538;-5.708;2023-12-20T10:30:55;13.50;99.90
60234;DHT22;49514;43.538;-5.708;2023-12-20T10:33:25;13.60;99.90
60234;DHT22;49514;43.538;-5.708;2023-12-20T10:35:52;13.80;99.90
60234;DHT22;49514;43.538;-5.708;2023-12-20T10:38:19;13.90;99.90
60234;DHT22;49514;43.538;-5.708;2023-12-20T10:40:45;14.00;99.90
60234;DHT22;49514;43.538;-5.708;2023-12-20T10:43:12;14.10;99.90
60234;DHT22;49514;43.538;-5.708;2023-12-20T10:45:39;14.00;99.90
60234;DHT22;49514;43.538;-5.708;2023-12-20T10:48:07;14.00;99.90
60234;DHT22;49514;43.538;-5.708;2023-12-20T10:50:36;14.00;99.90
60234;DHT22;49514;43.538;-5.708;2023-12-20T10:53:04;14.00;99.90
60234;DHT22;49514;43.538;-5.708;2023-12-20T10:55:31;14.10;99.90
60234;DHT22;49514;43.538;-5.708;2023-12-20T10:58:00;14.20;99.90
60234;DHT22;49514;43.538;-5.708;2023-12-20T11:00:28;14.30;99.90
60234;DHT22;49514;43.538;-5.708;2023-12-20T11:02:56;14.30;99.90
60234;DHT22;49514;43.538;-5.708;2023-12-20T11:06:00;14.40;99.90
60234;DHT22;49514;43.538;-5.708;2023-12-20T11:11:12;14.20;99.90
60234;DHT22;49514;43.538;-5.708;2023-12-20T11:13:53;14.10;99.90
60234;DHT22;49514;43.538;-5.708;2023-12-20T11:16:20;14.10;99.90
60234;DHT22;49514;43.538;-5.708;2023-12-20T11:18:47;14.40;99.90
60234;DHT22;49514;43.538;-5.708;2023-12-20T11:21:14;14.40;99.90
60234;DHT22;49514;43.538;-5.708;2023-12-20T11:23:42;14.40;99.90
60234;DHT22;49514;43.538;-5.708;2023-12-20T11:26:09;14.40;99.90
60234;DHT22;49514;43.538;-5.708;2023-12-20T11:28:36;14.20;99.90
60234;DHT22;49514;43.538;-5.708;2023-12-20T11:31:02;14.20;99.90
60234;DHT22;49514;43.538;-5.708;2023-12-20T11:36:01;14.00;99.90
60234;DHT22;49514;43.538;-5.708;2023-12-20T11:38:37;13.80;99.90
60234;DHT22;49514;43.538;-5.708;2023-12-20T11:41:07;13.70;99.90
60234;DHT22;49514;43.538;-5.708;2023-12-20T11:43:36;13.50;99.90
60234;DHT22;49514;43.538;-5.708;2023-12-20T11:46:06;13.40;99.90
60234;DHT22;49514;43.538;-5.708;2023-12-20T11:48:39;13.30;99.90
60234;DHT22;49514;43.538;-5.708;2023-12-20T11:51:13;13.30;99.90
60234;DHT22;49514;43.538;-5.708;2023-12-20T11:53:40;13.30;99.90
60234;DHT22;49514;43.538;-5.708;2023-12-20T11:56:08;13.20;99.90
60234;DHT22;49514;43.538;-5.708;2023-12-20T11:58:35;13.10;99.90
60234;DHT22;49514;43.538;-5.708;2023-12-20T12:01:01;13.10;99.90
60234;DHT22;49514;43.538;-5.708;2023-12-20T12:03:33;13.10;99.90
60234;DHT22;49514;43.538;-5.708;2023-12-20T12:05:59;13.10;99.90
60234;DHT22;49514;43.538;-5.708;2023-12-20T12:08:27;13.10;99.90
60234;DHT22;49514;43.538;-5.708;2023-12-20T12:10:53;13.30;99.90
60234;DHT22;49514;43.538;-5.708;2023-12-20T12:13:20;14.10;99.90
60234;DHT22;49514;43.538;-5.708;2023-12-20T12:15:48;15.20;99.90
60234;DHT22;49514;43.538;-5.708;2023-12-20T12:18:16;16.10;99.90
60234;DHT22;49514;43.538;-5.708;2023-12-20T12:20:43;17.00;99.90
60234;DHT22;49514;43.538;-5.708;2023-12-20T12:23:12;18.40;99.90
60234;DHT22;49514;43.538;-5.708;2023-12-20T12:25:38;20.20;99.90
60234;DHT22;49514;43.538;-5.708;2023-12-20T12:28:05;20.50;99.90
60234;DHT22;49514;43.538;-5.708;2023-12-20T12:30:32;20.60;99.90
60234;DHT22;49514;43.538;-5.708;2023-12-20T12:32:58;19.90;99.90
60234;DHT22;49514;43.538;-5.708;2023-12-20T12:35:24;19.60;99.90
60234;DHT22;49514;43.538;-5.708;2023-12-20T12:37:51;19.30;99.90
60234;DHT22;49514;43.538;-5.708;2023-12-20T12:40:17;18.90;99.90
60234;DHT22;49514;43.538;-5.708;2023-12-20T12:42:44;19.10;99.90
60234;DHT22;49514;43.538;-5.708;2023-12-20T12:45:11;19.00;99.90
60234;DHT22;49514;43.538;-5.708;2023-12-20T12:47:38;18.60;99.90
60234;DHT22;49514;43.538;-5.708;2023-12-20T12:50:05;18.10;99.90
60234;DHT22;49514;43.538;-5.708;2023-12-20T12:52:31;17.60;99.90
60234;DHT22;49514;43.538;-5.708;2023-12-20T12:54:58;16.90;99.90
60234;DHT22;49514;43.538;-5.708;2023-12-20T12:57:24;16.50;99.90
60234;DHT22;49514;43.538;-5.708;2023-12-20T12:59:51;16.40;99.90
60234;DHT22;49514;43.538;-5.708;2023-12-20T13:02:17;16.30;99.90
60234;DHT22;49514;43.538;-5.708;2023-12-20T13:04:44;16.30;99.90
60234;DHT22;49514;43.538;-5.708;2023-12-20T13:07:11;16.20;99.90
60234;DHT22;49514;43.538;-5.708;2023-12-20T13:09:38;16.10;99.90
60234;DHT22;49514;43.538;-5.708;2023-12-20T13:12:05;15.80;99.90
60234;DHT22;49514;43.538;-5.708;2023-12-20T13:14:33;15.50;99.90
60234;DHT22;49514;43.538;-5.708;2023-12-20T13:17:01;15.30;99.90
60234;DHT22;49514;43.538;-5.708;2023-12-20T13:19:27;15.20;99.90
60234;DHT22;49514;43.538;-5.708;2023-12-20T13:21:53;15.40;99.90
60234;DHT22;49514;43.538;-5.708;2023-12-20T13:24:20;15.40;99.90
60234;DHT22;49514;43.538;-5.708;2023-12-20T13:26:47;15.30;99.90
60234;DHT22;49514;43.538;-5.708;2023-12-20T13:29:14;15.40;99.90
60234;DHT22;49514;43.538;-5.708;2023-12-20T13:31:41;15.20;99.90
60234;DHT22;49514;43.538;-5.708;2023-12-20T13:34:08;15.00;99.90
60234;DHT22;49514;43.538;-5.708;2023-12-20T13:36:34;14.80;99.90
60234;DHT22;49514;43.538;-5.708;2023-12-20T13:39:03;14.60;99.90
60234;DHT22;49514;43.538;-5.708;2023-12-20T13:41:31;14.50;99.90
60234;DHT22;49514;43.538;-5.708;2023-12-20T13:43:58;14.30;99.90
60234;DHT22;49514;43.538;-5.708;2023-12-20T13:46:25;14.10;99.90
60234;DHT22;49514;43.538;-5.708;2023-12-20T13:48:52;14.10;99.90
60234;DHT22;49514;43.538;-5.708;2023-12-20T13:51:18;14.00;99.90
60234;DHT22;49514;43.538;-5.708;2023-12-20T13:53:47;13.80;99.90
60234;DHT22;49514;43.538;-5.708;2023-12-20T13:56:16;13.70;99.90
60234;DHT22;49514;43.538;-5.708;2023-12-20T13:58:42;13.70;99.90
60234;DHT22;49514;43.538;-5.708;2023-12-20T14:01:10;13.70;99.90
60234;DHT22;49514;43.538;-5.708;2023-12-20T14:03:37;13.80;99.90
60234;DHT22;49514;43.538;-5.708;2023-12-20T14:06:04;13.90;99.90
60234;DHT22;49514;43.538;-5.708;2023-12-20T14:08:30;14.20;99.90
60234;DHT22;49514;43.538;-5.708;2023-12-20T14:10:57;14.60;99.90
60234;DHT22;49514;43.538;-5.708;2023-12-20T14:13:23;14.90;99.90
60234;DHT22;49514;43.538;-5.708;2023-12-20T14:15:50;15.00;99.90
60234;DHT22;49514;43.538;-5.708;2023-12-20T14:18:17;15.20;99.90
60234;DHT22;49514;43.538;-5.708;2023-12-20T14:20:44;16.10;99.90
60234;DHT22;49514;43.538;-5.708;2023-12-20T14:23:13;17.40;99.90
60234;DHT22;49514;43.538;-5.708;2023-12-20T14:25:42;18.10;99.90
60234;DHT22;49514;43.538;-5.708;2023-12-20T14:28:09;18.30;99.90
60234;DHT22;49514;43.538;-5.708;2023-12-20T14:30:36;18.50;99.90
60234;DHT22;49514;43.538;-5.708;2023-12-20T14:33:04;19.00;99.90
60234;DHT22;49514;43.538;-5.708;2023-12-20T14:35:31;19.50;99.90
60234;DHT22;49514;43.538;-5.708;2023-12-20T14:37:58;20.50;99.90
60234;DHT22;49514;43.538;-5.708;2023-12-20T14:40:25;20.80;99.90
60234;DHT22;49514;43.538;-5.708;2023-12-20T14:42:52;20.70;99.90
60234;DHT22;49514;43.538;-5.708;2023-12-20T14:45:19;21.20;99.90
60234;DHT22;49514;43.538;-5.708;2023-12-20T14:47:46;22.20;99.90
60234;DHT22;49514;43.538;-5.708;2023-12-20T14:50:14;22.40;99.90
60234;DHT22;49514;43.538;-5.708;2023-12-20T14:52:46;22.10;99.90
60234;DHT22;49514;43.538;-5.708;2023-12-20T14:55:13;23.00;99.90
60234;DHT22;49514;43.538;-5.708;2023-12-20T14:57:40;24.50;99.90
60234;DHT22;49514;43.538;-5.708;2023-12-20T15:00:07;25.20;99.90
60234;DHT22;49514;43.538;-5.708;2023-12-20T15:02:34;25.60;95.20
60234;DHT22;49514;43.538;-5.708;2023-12-20T15:05:01;25.70;94.60
60234;DHT22;49514;43.538;-5.708;2023-12-20T15:07:28;26.30;93.10
60234;DHT22;49514;43.538;-5.708;2023-12-20T15:09:55;26.80;93.90
60234;DHT22;49514;43.538;-5.708;2023-12-20T15:12:22;27.50;95.50
60234;DHT22;49514;43.538;-5.708;2023-12-20T15:14:50;27.50;90.20
60234;DHT22;49514;43.538;-5.708;2023-12-20T15:17:17;26.90;86.20
60234;DHT22;49514;43.538;-5.708;2023-12-20T15:19:44;26.60;82.10